Southern Sonoma County Latest

20 Stations

15 Minute Data
as of 5/9/26 12:01 AM PDT
Station Date Time Temp (°F) RH (%) Dew Pt (°F) Wind Spd (mph) Wind Dir (°) Wind Gust (mph) Latest Rain (In) Daily Rain (In) Daily Min Temp (°F) Daily Max Temp (°F)
Upper Rincon Valley 5/9/26 0000 53.7   3.4 76   21 46.4   3.2 1.0   0.6 N | 1 3.4   1.0 0.00 0.00 48.0   0.1 71.8   4.2
Lower Bennett Valley 5/9/26 0000 47.1   4.0 99   1 46.9   4.2 1.8   1.8 WNW | 285 2.7   3.7 0.00 0.00 46.8   3.1 71.3   2.6
Kenwood (Wildwood) 5/9/26 0000 52.4   0.2 92   4 50.3   1.0 0.3   2.4 ENE | 72 1.4   4.8 0.00 0.00 50.1   2.3 76.8   3.9
Crane Creek (Ranch 62) 5/9/26 0000 48.5   3.6 95   1 47.0   3.3 1.1   1.4 ENE | 60 2.1   3.4 0.00 0.00 48.3   2.5 70.5   2.6
Rohnert Park-West (Stony Point) 5/9/26 0000 48.4   3.9 95   0 47.0   3.9 0.0   1.2 N | 0 0.0   3.0 0.00 0.00 48.4   2.8 68.4   3.6
Rice-Spivak Vineyard 5/9/26 0000 42.9   7.6 - - - - - - - 42.5   7.8 70.8   4.0
Cartograph Wines Base 5/9/26 0000 49.5   1.1 93   3 47.7   2.1 0.2   2.3 ENE | 72 1.5   4.6 0.00 0.00 49.3   0.8 67.1   3.8
Cartograph Wines Remote 5/9/26 0000 47.7   3.3 - - - - - - - 47.7   3.0 67.9   4.2
Penngrove (Asellus) 5/9/26 0000 47.0   5.2 95   5 45.7   3.7 0.2   1.7 S | 170 1.4   3.2 0.00 0.00 46.4   4.6 69.4   3.1
Sonoma Valley (Bedrock) 5/9/26 0000 49.6   0.3 92   1 47.5   0.5 - - - 0.00 0.00 49.4   1.4 78.6   3.9
Sonoma-West (Arnold) 5/9/26 0000 48.1   3.9 94   3 46.4   3.0 0.6   2.3 WNW | 294 1.2   5.8 0.00 0.01 48.1   0.6 75.4   0.3
Sonoma Valley HS 5/9/26 0000 50.5   1.6 95   2 49.1   2.3 0.2   1.9 E | 79 2.0   2.3 0.00 0.00 50.2   1.2 73.5   0.5
Sonoma East (Bundschu01) 5/9/26 0000 51.9   0.8 86   5 48.0   2.2 3.2   1.0 SE | 130 4.8   0.4 0.00 0.00 51.3   0.4 73.6   1.0
Sonoma-SE (Napoli) 5/9/26 0000 53.9   1.6 81   9 48.4   1.3 1.9   2.3 WSW | 251 4.8   2.7 0.00 0.00 50.8   0.7 76.0   2.4
Schellville (Sasaki) 2/7/26 1900 53.4   2.2 88   10 49.9   1.0 3.3   1.8 SW | 225 5.8   4.0 0.00 0.00 47.0   0.8 62.8   8.4
Petaluma (Ranch 10) 5/9/26 0000 48.7   4.6 92   6 46.4   2.9 0.2   5.9 NNE | 14 1.4   9.9 0.00 0.00 48.6   3.6 72.7   3.0
Carneros (Ranch 71) 5/9/26 0000 52.9   1.7 85   10 48.4   1.2 2.9   6.2 NNW | 339 5.5   8.6 0.00 0.00 49.8   1.0 73.5   1.7
Ricci Vineyards (Carneros) 5/9/26 0000 49.4   2.4 91   0 47.0   2.2 1.7   5.2 NE | 55 2.6   9.2 0.00 0.00 49.2   2.1 75.7   1.3
Carneros Upper (Ranch 81) 5/9/26 0000 52.9   1.7 84   16 48.3   2.9 3.3   8.9 W | 278 5.3   13.5 - - 49.9   1.0 73.4   0.2
Carneros Lower (Ranch 81) 5/9/26 0000 51.1   0.5 88   5 47.7   1.9 0.0   0.5 SSW | 201 0.4   2.8 0.00 0.00 51.1   0.1 77.7   0.3
Max     53.9 99 50.3 3.3 - 5.5 0.00 0.01 51.3 78.6
Avg     49.8 90 47.5 1.2 - 2.5 0.00 - - -
Min     42.9 76 45.7 0.0 - 0.0 0.00 0.00 42.5 67.1